Time;durP1;ratioP1;P1;durP2;ratioP2;P2;SDS_P1;SDS_P2;PMS_P1;PMS_P2;Temp;Humidity;BMP_temperature;BMP_pressure;BME280_temperature;BME280_humidity;BME280_pressure;Samples;Min_cycle;Max_cycle;Signal;HPM_P1;HPM_P2
2023/08/09 00:01:43;;;;;;;4.32;1.58;;;;;;;-144.48;100.00;62369.91;4991164;28;20453;-67
2023/08/09 00:04:09;;;;;;;5.10;1.65;;;;;;;-144.48;100.00;62369.91;4991354;28;20068;-66
2023/08/09 00:06:34;;;;;;;5.18;1.67;;;;;;;-144.48;100.00;62369.91;4989895;28;20084;-69
2023/08/09 00:09:00;;;;;;;10.57;2.28;;;;;;;-144.48;100.00;62369.91;4991591;28;20077;-68
2023/08/09 00:11:26;;;;;;;8.52;1.83;;;;;;;-144.48;100.00;62369.91;4991497;28;20026;-68
2023/08/09 00:13:51;;;;;;;7.85;1.77;;;;;;;-144.48;100.00;62369.91;4990981;28;20034;-66
2023/08/09 00:16:17;;;;;;;4.70;1.73;;;;;;;-144.48;100.00;62369.91;4990647;28;20053;-68
2023/08/09 00:18:42;;;;;;;3.72;1.42;;;;;;;-144.48;100.00;62369.91;4990769;28;20030;-68
2023/08/09 00:21:07;;;;;;;5.93;1.77;;;;;;;-144.48;100.00;62369.91;4991087;28;20053;-66
2023/08/09 00:23:33;;;;;;;5.90;1.48;;;;;;;-144.48;100.00;62369.91;4990933;28;20085;-69
2023/08/09 00:26:00;;;;;;;3.83;1.63;;;;;;;-144.48;100.00;62369.91;4990851;28;20105;-65
2023/08/09 00:28:25;;;;;;;3.63;1.67;;;;;;;-144.48;100.00;62369.91;4989720;28;20030;-69
2023/08/09 00:30:51;;;;;;;10.45;2.05;;;;;;;-144.48;100.00;62369.91;4990056;28;20491;-66
2023/08/09 00:33:16;;;;;;;9.15;2.00;;;;;;;-144.48;100.00;62369.91;4985444;28;20041;-68
2023/08/09 00:35:42;;;;;;;6.93;2.05;;;;;;;-144.48;100.00;62369.91;4988849;28;20482;-67
2023/08/09 00:38:07;;;;;;;9.93;1.88;;;;;;;-144.48;100.00;62369.91;4991155;28;20064;-65
2023/08/09 00:40:33;;;;;;;7.40;1.83;;;;;;;-144.48;100.00;62369.91;4990749;28;20022;-68
2023/08/09 00:42:58;;;;;;;4.20;1.52;;;;;;;-144.48;100.00;62369.91;4990666;28;20062;-67
2023/08/09 00:45:24;;;;;;;7.18;1.58;;;;;;;-144.48;100.00;62369.91;4990617;28;20356;-68
2023/08/09 00:47:49;;;;;;;4.25;1.65;;;;;;;-144.48;100.00;62369.91;4991371;28;20053;-67
2023/08/09 00:50:15;;;;;;;5.05;1.95;;;;;;;-144.48;100.00;62369.91;4991565;28;20070;-69
2023/08/09 00:52:40;;;;;;;4.25;1.63;;;;;;;-144.48;100.00;62369.91;4991746;28;20022;-69
2023/08/09 00:55:06;;;;;;;6.82;1.80;;;;;;;-144.48;100.00;62369.91;4991058;28;20044;-69
2023/08/09 00:57:32;;;;;;;8.77;1.80;;;;;;;-144.48;100.00;62369.91;4990833;28;20057;-67
2023/08/09 00:59:57;;;;;;;7.50;2.05;;;;;;;-144.48;100.00;62369.91;4989917;28;20560;-64
2023/08/09 01:02:23;;;;;;;5.32;1.92;;;;;;;-144.48;100.00;62369.91;4989733;28;20026;-70
2023/08/09 01:04:49;;;;;;;4.90;1.58;;;;;;;-144.48;100.00;62369.91;4989475;28;20033;-69
2023/08/09 01:07:33;;;;;;;2.70;1.40;;;;;;;-144.48;100.00;62369.91;4988811;28;20121;-68
2023/08/09 01:10:15;;;;;;;5.60;2.00;;;;;;;-144.48;100.00;62369.91;4989920;28;20183;-66
2023/08/09 01:12:46;;;;;;;4.43;1.70;;;;;;;-144.48;100.00;62369.91;4988830;28;20023;-65
2023/08/09 01:15:15;;;;;;;6.05;1.88;;;;;;;-144.48;100.00;62369.91;4990168;28;20189;-64
2023/08/09 01:17:41;;;;;;;4.05;1.65;;;;;;;-144.48;100.00;62369.91;4989411;28;20018;-67
2023/08/09 01:20:11;;;;;;;3.83;1.70;;;;;;;-144.48;100.00;62369.91;4989520;28;20026;-68
2023/08/09 01:22:40;;;;;;;6.20;1.70;;;;;;;-144.48;100.00;62369.91;4990005;28;20030;-68
2023/08/09 01:25:08;;;;;;;6.63;2.53;;;;;;;-144.48;100.00;62369.91;4989390;28;20420;-66
2023/08/09 01:27:35;;;;;;;5.55;2.15;;;;;;;-144.48;100.00;62369.91;4989465;28;20045;-65
2023/08/09 01:30:04;;;;;;;4.15;2.00;;;;;;;-144.48;100.00;62369.91;4989519;28;20604;-67
2023/08/09 01:32:31;;;;;;;6.97;2.45;;;;;;;-144.48;100.00;62369.91;4989124;28;20038;-68
2023/08/09 01:34:58;;;;;;;5.50;1.90;;;;;;;-144.48;100.00;62369.91;4988834;28;20026;-69
2023/08/09 01:37:34;;;;;;;7.65;2.30;;;;;;;-144.48;100.00;62369.91;4989752;28;20077;-68
2023/08/09 01:40:11;;;;;;;6.80;2.10;;;;;;;-144.48;100.00;62369.91;4990056;28;20018;-67
2023/08/09 01:42:38;;;;;;;5.80;1.70;;;;;;;-144.48;100.00;62369.91;4989373;28;20454;-66
2023/08/09 01:45:06;;;;;;;3.58;1.67;;;;;;;-144.48;100.00;62369.91;4989917;28;20030;-69
2023/08/09 01:47:32;;;;;;;8.70;1.90;;;;;;;-144.48;100.00;62369.91;4988979;28;20034;-68
2023/08/09 01:49:58;;;;;;;4.20;1.65;;;;;;;-144.48;100.00;62369.91;4989091;28;20041;-65
2023/08/09 01:52:23;;;;;;;5.03;2.40;;;;;;;-144.48;100.00;62369.91;4987787;28;20046;-68
2023/08/09 01:54:49;;;;;;;9.48;1.90;;;;;;;-144.48;100.00;62369.91;4989042;28;20022;-67
2023/08/09 01:57:14;;;;;;;12.13;1.90;;;;;;;-144.48;100.00;62369.91;4989127;28;20030;-68
2023/08/09 01:59:41;;;;;;;6.57;2.20;;;;;;;-144.48;100.00;62369.91;4989360;28;20056;-68
2023/08/09 02:02:06;;;;;;;5.78;1.92;;;;;;;-144.48;100.00;62369.91;4988859;28;20116;-66
2023/08/09 02:04:32;;;;;;;8.15;1.95;;;;;;;-144.48;100.00;62369.91;4988715;28;20102;-68
2023/08/09 02:06:57;;;;;;;6.95;2.03;;;;;;;-144.48;100.00;62369.91;4988902;28;20030;-64
2023/08/09 02:09:22;;;;;;;6.13;1.92;;;;;;;-144.48;100.00;62369.91;4988983;28;20030;-67
2023/08/09 02:11:47;;;;;;;4.80;2.30;;;;;;;-144.48;100.00;62369.91;4988744;28;20045;-68
2023/08/09 02:14:13;;;;;;;6.93;2.28;;;;;;;-144.48;100.00;62369.91;4988534;28;20045;-69
2023/08/09 02:16:40;;;;;;;9.07;2.13;;;;;;;-144.48;100.00;62369.91;4988969;28;20034;-69
2023/08/09 02:19:06;;;;;;;6.07;2.30;;;;;;;-144.48;100.00;62369.91;4988862;28;20420;-66
2023/08/09 02:21:31;;;;;;;3.88;1.98;;;;;;;-144.48;100.00;62369.91;4989707;28;20030;-68
2023/08/09 02:23:56;;;;;;;7.60;2.30;;;;;;;-144.48;100.00;62369.91;4988743;28;20126;-65
2023/08/09 02:26:22;;;;;;;5.25;2.45;;;;;;;-144.48;100.00;62369.91;4989224;28;20018;-69
2023/08/09 02:28:48;;;;;;;8.02;2.35;;;;;;;-144.48;100.00;62369.91;4988734;28;20022;-68
2023/08/09 02:31:14;;;;;;;7.03;2.25;;;;;;;-144.48;100.00;62369.91;4988493;28;20045;-69
2023/08/09 02:33:40;;;;;;;6.15;2.30;;;;;;;-144.48;100.00;62369.91;4988002;28;20068;-68
2023/08/09 02:36:05;;;;;;;6.55;2.63;;;;;;;-144.48;100.00;62369.91;4988017;28;20491;-66
2023/08/09 02:38:31;;;;;;;6.40;2.80;;;;;;;-144.48;100.00;62369.91;4988379;28;20026;-67
2023/08/09 02:40:57;;;;;;;7.63;2.83;;;;;;;-144.48;100.00;62369.91;4988425;28;20054;-65
2023/08/09 02:43:26;;;;;;;7.47;2.85;;;;;;;-144.48;100.00;62369.91;4988538;28;20030;-67
2023/08/09 02:45:53;;;;;;;5.05;2.30;;;;;;;-144.48;100.00;62369.91;4989742;28;20030;-69
2023/08/09 02:48:19;;;;;;;6.07;2.20;;;;;;;-144.48;100.00;62369.91;4991497;28;20038;-66
2023/08/09 02:50:44;;;;;;;11.38;2.72;;;;;;;-144.48;100.00;62369.91;4996225;28;20038;-68
2023/08/09 02:53:11;;;;;;;8.05;2.40;;;;;;;-144.48;100.00;62369.91;4992149;28;20374;-69
2023/08/09 02:55:36;;;;;;;8.23;2.50;;;;;;;-144.48;100.00;62369.91;4987874;28;20115;-68
2023/08/09 02:58:03;;;;;;;7.22;2.42;;;;;;;-144.48;100.00;62369.91;4988479;28;20602;-68
2023/08/09 03:00:30;;;;;;;6.57;2.60;;;;;;;-144.48;100.00;62369.91;4988027;28;20022;-66
2023/08/09 03:02:55;;;;;;;6.10;2.90;;;;;;;-144.48;100.00;62369.91;4987968;28;20030;-68
2023/08/09 03:05:21;;;;;;;7.13;2.75;;;;;;;-144.48;100.00;62369.91;4987831;28;20503;-66
2023/08/09 03:07:46;;;;;;;6.93;2.60;;;;;;;-144.48;100.00;62369.91;4988334;28;20022;-67
2023/08/09 03:10:12;;;;;;;6.80;2.20;;;;;;;-144.48;100.00;62369.91;4988052;28;20407;-68
2023/08/09 03:12:38;;;;;;;6.47;2.28;;;;;;;-144.48;100.00;62369.91;4988694;28;20114;-69
2023/08/09 03:15:04;;;;;;;5.13;2.00;;;;;;;-144.48;100.00;62369.91;4988497;28;20026;-68
2023/08/09 03:17:30;;;;;;;4.30;2.15;;;;;;;-144.48;100.00;62369.91;4988922;28;20029;-67
2023/08/09 03:19:56;;;;;;;9.85;2.17;;;;;;;-144.48;100.00;62369.91;4987432;28;20404;-63
2023/08/09 03:22:23;;;;;;;6.03;2.25;;;;;;;-144.48;100.00;62369.91;4987780;28;20034;-68
2023/08/09 03:24:49;;;;;;;5.20;2.17;;;;;;;-144.48;100.00;62369.91;4987743;28;20014;-65
2023/08/09 03:27:14;;;;;;;8.30;2.75;;;;;;;-144.48;100.00;62369.91;4988227;28;20038;-69
2023/08/09 03:29:39;;;;;;;3.75;1.98;;;;;;;-144.48;100.00;62369.91;4988609;28;20510;-70
2023/08/09 03:32:05;;;;;;;6.43;2.20;;;;;;;-144.48;100.00;62369.91;4994364;28;20029;-67
2023/08/09 03:34:30;;;;;;;7.82;2.17;;;;;;;-144.48;100.00;62369.91;4992924;28;20168;-67
2023/08/09 03:36:55;;;;;;;3.75;2.17;;;;;;;-144.48;100.00;62369.91;4994338;28;20031;-65
2023/08/09 03:39:21;;;;;;;4.90;2.45;;;;;;;-144.48;100.00;62369.91;4994389;28;20196;-68
2023/08/09 03:41:47;;;;;;;6.40;2.50;;;;;;;-144.48;100.00;62369.91;4994440;28;20034;-68
2023/08/09 03:44:13;;;;;;;5.72;2.47;;;;;;;-144.48;100.00;62369.91;5009258;28;20030;-68
2023/08/09 03:46:39;;;;;;;8.40;2.53;;;;;;;-144.48;100.00;62369.91;4995233;28;20034;-69
2023/08/09 03:49:04;;;;;;;14.02;2.92;;;;;;;-144.48;100.00;62369.91;4994316;28;20357;-65
2023/08/09 03:51:30;;;;;;;10.02;3.05;;;;;;;-144.48;100.00;62369.91;4994257;28;20061;-68
2023/08/09 03:53:55;;;;;;;7.00;2.90;;;;;;;-144.48;100.00;62369.91;4994797;28;20028;-67
2023/08/09 03:56:21;;;;;;;10.63;3.35;;;;;;;-144.48;100.00;62369.91;4994179;28;20352;-68
2023/08/09 03:58:46;;;;;;;9.07;3.25;;;;;;;-144.48;100.00;62369.91;4994279;28;20027;-67
2023/08/09 04:01:12;;;;;;;7.85;3.67;;;;;;;-144.48;100.00;62369.91;4992808;28;20491;-68
2023/08/09 04:03:38;;;;;;;9.45;3.35;;;;;;;-144.48;100.00;62369.91;4992079;28;20033;-67
2023/08/09 04:06:05;;;;;;;6.38;3.33;;;;;;;-144.48;100.00;62369.91;4994382;28;20036;-67
2023/08/09 04:08:31;;;;;;;9.50;3.55;;;;;;;-144.48;100.00;62369.91;4994349;28;20061;-67
2023/08/09 04:10:56;;;;;;;6.57;3.53;;;;;;;-144.48;100.00;62369.91;4994470;28;20097;-68
2023/08/09 04:13:22;;;;;;;5.28;3.08;;;;;;;-144.48;100.00;62369.91;4994216;28;20030;-69
2023/08/09 04:15:47;;;;;;;7.57;3.72;;;;;;;-144.48;100.00;62369.91;4993942;28;20014;-67
2023/08/09 04:18:16;;;;;;;8.88;4.13;;;;;;;-144.48;100.00;62369.91;4993213;28;20070;-65
2023/08/09 04:20:42;;;;;;;;;;;;;;;-144.48;100.00;62369.91;4992915;28;20212;-67
2023/08/09 04:23:08;;;;;;;9.82;4.28;;;;;;;-144.48;100.00;62369.91;4993991;28;20021;-66
2023/08/09 04:25:34;;;;;;;9.63;3.80;;;;;;;-144.48;100.00;62369.91;4994164;28;20026;-68
2023/08/09 04:27:59;;;;;;;7.70;3.08;;;;;;;-144.48;100.00;62369.91;4993812;28;20026;-68
2023/08/09 04:30:25;;;;;;;7.75;3.90;;;;;;;-144.48;100.00;62369.91;4994050;28;20030;-65
2023/08/09 04:32:52;;;;;;;7.68;3.95;;;;;;;-144.48;100.00;62369.91;4994384;28;20026;-68
2023/08/09 04:35:18;;;;;;;7.85;3.67;;;;;;;-144.48;100.00;62369.91;4993274;28;20034;-68
2023/08/09 04:37:43;;;;;;;7.88;3.75;;;;;;;-144.48;100.00;62369.91;4993741;28;20030;-67
2023/08/09 04:40:10;;;;;;;9.43;4.85;;;;;;;-144.48;100.00;62369.91;4992777;28;20105;-68
2023/08/09 04:42:40;;;;;;;7.18;3.70;;;;;;;-144.48;100.00;62369.91;4990987;28;20023;-68
2023/08/09 04:45:08;;;;;;;9.18;3.83;;;;;;;-144.48;100.00;62369.91;4990901;28;20034;-66
2023/08/09 04:47:34;;;;;;;8.02;4.35;;;;;;;-144.48;100.00;62369.91;4991538;28;20030;-65
2023/08/09 04:50:00;;;;;;;5.80;3.45;;;;;;;-144.48;100.00;62369.91;4991503;28;20031;-68
2023/08/09 04:52:25;;;;;;;10.35;4.05;;;;;;;-144.48;100.00;62369.91;4989857;28;20023;-68
2023/08/09 04:54:51;;;;;;;6.35;3.35;;;;;;;-144.48;100.00;62369.91;4990880;28;20503;-68
2023/08/09 04:57:16;;;;;;;7.63;3.58;;;;;;;-144.48;100.00;62369.91;4989933;28;20038;-69
2023/08/09 04:59:42;;;;;;;8.68;3.80;;;;;;;-144.48;100.00;62369.91;4990597;28;20480;-68
2023/08/09 05:02:07;;;;;;;7.60;3.75;;;;;;;-144.48;100.00;62369.91;4990284;28;20060;-68
2023/08/09 05:04:32;;;;;;;8.48;3.45;;;;;;;-144.48;100.00;62369.91;4989896;28;20102;-67
2023/08/09 05:06:58;;;;;;;8.52;4.00;;;;;;;-144.48;100.00;62369.91;4988672;28;20022;-69
2023/08/09 05:09:23;;;;;;;5.40;2.83;;;;;;;-144.48;100.00;62369.91;4990946;28;20030;-67
2023/08/09 05:11:49;;;;;;;7.53;3.63;;;;;;;-144.48;100.00;62369.91;4989870;28;20037;-68
2023/08/09 05:14:14;;;;;;;11.45;3.78;;;;;;;-144.48;100.00;62369.91;4990269;28;20116;-66
2023/08/09 05:16:39;;;;;;;7.35;3.72;;;;;;;-144.48;100.00;62369.91;4989567;28;20022;-70
2023/08/09 05:19:05;;;;;;;7.20;3.60;;;;;;;-144.48;100.00;62369.91;4989221;28;20037;-69
2023/08/09 05:21:30;;;;;;;7.50;3.42;;;;;;;-144.48;100.00;62369.91;4989204;28;20034;-68
2023/08/09 05:23:55;;;;;;;7.22;3.10;;;;;;;-144.48;100.00;62369.91;4990551;28;20343;-68
2023/08/09 05:26:21;;;;;;;9.88;4.00;;;;;;;-144.48;100.00;62369.91;4989825;28;20033;-68
2023/08/09 05:28:46;;;;;;;7.15;3.47;;;;;;;-144.48;100.00;62369.91;4986399;28;20026;-67
2023/08/09 05:31:12;;;;;;;8.15;3.88;;;;;;;-144.48;100.00;62369.91;4989839;28;20044;-68
2023/08/09 05:33:37;;;;;;;8.88;3.47;;;;;;;-144.48;100.00;62369.91;4983307;28;20023;-68
2023/08/09 05:36:03;;;;;;;8.27;3.85;;;;;;;-144.48;100.00;62369.91;4988046;28;20812;-65
2023/08/09 05:38:28;;;;;;;8.18;3.28;;;;;;;-144.48;100.00;62369.91;4989907;28;20031;-68
2023/08/09 05:40:55;;;;;;;8.00;2.92;;;;;;;-144.48;100.00;62369.91;4988783;28;20034;-68
2023/08/09 05:43:20;;;;;;;6.00;3.53;;;;;;;-144.48;100.00;62369.91;4988503;28;20026;-68
2023/08/09 05:45:46;;;;;;;12.80;3.70;;;;;;;-144.48;100.00;62369.91;4988962;28;20129;-66
2023/08/09 05:48:12;;;;;;;7.90;3.83;;;;;;;-144.48;100.00;62369.91;4990435;28;20033;-67
2023/08/09 05:50:37;;;;;;;7.97;3.72;;;;;;;-144.48;100.00;62369.91;4989258;28;20038;-70
2023/08/09 05:53:03;;;;;;;9.88;3.85;;;;;;;-144.48;100.00;62369.91;4990136;28;20030;-66
2023/08/09 05:55:28;;;;;;;6.50;3.83;;;;;;;-144.48;100.00;62369.91;4989832;28;20169;-69
2023/08/09 05:57:54;;;;;;;8.00;4.00;;;;;;;-144.48;100.00;62369.91;4989973;28;20046;-68
2023/08/09 06:00:19;;;;;;;5.15;2.65;;;;;;;-144.48;100.00;62369.91;4989039;28;20033;-70
2023/08/09 06:02:45;;;;;;;6.05;2.95;;;;;;;-144.48;100.00;62369.91;4990274;28;20370;-65
2023/08/09 06:05:17;;;;;;;6.70;3.00;;;;;;;-144.48;100.00;62369.91;4988902;28;20100;-69
2023/08/09 06:07:43;;;;;;;4.05;2.20;;;;;;;-144.48;100.00;62369.91;4989722;28;20099;-67
2023/08/09 06:10:08;;;;;;;6.57;2.30;;;;;;;-144.48;100.00;62369.91;4989112;28;20115;-69
2023/08/09 06:12:34;;;;;;;8.80;2.53;;;;;;;-144.48;100.00;62369.91;4989414;28;20211;-67
2023/08/09 06:14:59;;;;;;;4.47;2.45;;;;;;;-144.48;100.00;62369.91;4988760;28;20026;-69
2023/08/09 06:17:25;;;;;;;7.20;2.47;;;;;;;-144.48;100.00;62369.91;4987552;28;20033;-68
2023/08/09 06:19:50;;;;;;;8.02;2.72;;;;;;;-144.48;100.00;62369.91;4988197;28;20018;-70
2023/08/09 06:22:15;;;;;;;5.28;2.10;;;;;;;-144.48;100.00;62369.91;4988652;28;20053;-69
2023/08/09 06:24:41;;;;;;;5.55;2.03;;;;;;;-144.48;100.00;62369.91;4988367;28;20033;-68
2023/08/09 06:27:06;;;;;;;5.22;2.05;;;;;;;-144.48;100.00;62369.91;4989424;28;20034;-67
2023/08/09 06:29:33;;;;;;;2.53;1.23;;;;;;;-144.48;100.00;62369.91;4987546;28;20125;-67
2023/08/09 06:31:58;;;;;;;2.78;1.10;;;;;;;-144.48;100.00;62369.91;4989067;28;20088;-67
2023/08/09 06:34:23;;;;;;;3.80;1.45;;;;;;;-144.48;100.00;62369.91;4981177;28;20113;-68
2023/08/09 06:36:49;;;;;;;3.17;1.85;;;;;;;-144.48;100.00;62369.91;4988557;28;20096;-69
2023/08/09 06:39:14;;;;;;;3.30;1.30;;;;;;;-144.48;100.00;62369.91;4989061;28;20029;-67
2023/08/09 06:41:39;;;;;;;2.97;1.15;;;;;;;-144.48;100.00;62369.91;4980668;28;20023;-68
2023/08/09 06:44:05;;;;;;;2.92;1.60;;;;;;;-144.48;100.00;62369.91;4985932;28;20026;-69
2023/08/09 06:46:31;;;;;;;2.35;1.20;;;;;;;-144.48;100.00;62369.91;4988883;28;20042;-66
2023/08/09 06:48:56;;;;;;;2.05;1.20;;;;;;;-144.48;100.00;62369.91;4988755;28;20049;-69
2023/08/09 06:51:21;;;;;;;4.18;1.38;;;;;;;-144.48;100.00;62369.91;4988202;28;20110;-65
2023/08/09 06:53:47;;;;;;;2.55;1.25;;;;;;;-144.48;100.00;62369.91;4988035;28;20022;-66
2023/08/09 06:56:13;;;;;;;3.58;1.50;;;;;;;-144.48;100.00;62369.91;4988429;28;20030;-68
2023/08/09 06:58:39;;;;;;;4.88;1.67;;;;;;;-144.48;100.00;62369.91;4986840;28;20034;-69
2023/08/09 07:01:09;;;;;;;2.53;1.30;;;;;;;-144.48;100.00;62369.91;4988689;28;20041;-68
2023/08/09 07:03:35;;;;;;;3.13;1.30;;;;;;;-144.48;100.00;62369.91;4987995;28;20109;-69
2023/08/09 07:06:01;;;;;;;2.42;1.20;;;;;;;-144.48;100.00;62369.91;4986916;28;20065;-69
2023/08/09 07:08:27;;;;;;;2.08;1.00;;;;;;;-144.48;100.00;62369.91;4988495;28;20500;-66
2023/08/09 07:10:52;;;;;;;7.07;1.90;;;;;;;-144.48;100.00;62369.91;4988342;28;20637;-69
2023/08/09 07:13:18;;;;;;;3.38;1.23;;;;;;;-144.48;100.00;62369.91;4987561;28;20495;-68
2023/08/09 07:15:43;;;;;;;3.22;1.67;;;;;;;-144.48;100.00;62369.91;4987604;28;20090;-67
2023/08/09 07:18:09;;;;;;;3.53;1.60;;;;;;;-144.48;100.00;62369.91;4988339;28;20034;-68
2023/08/09 07:20:34;;;;;;;6.60;1.50;;;;;;;-144.48;100.00;62369.91;4987885;28;20439;-68
2023/08/09 07:23:00;;;;;;;4.03;1.50;;;;;;;-144.48;100.00;62369.91;4987866;28;20022;-66
2023/08/09 07:25:25;;;;;;;2.60;1.10;;;;;;;-144.48;100.00;62369.91;4988028;28;20089;-70
2023/08/09 07:27:51;;;;;;;5.20;1.42;;;;;;;-144.48;100.00;62369.91;4988047;28;20038;-66
2023/08/09 07:30:18;;;;;;;3.10;1.17;;;;;;;-144.48;100.00;62369.91;4989594;28;20053;-69
2023/08/09 07:32:44;;;;;;;2.83;1.08;;;;;;;-144.48;100.00;62369.91;4988975;28;20069;-66
2023/08/09 07:35:11;;;;;;;3.45;1.52;;;;;;;-144.48;100.00;62369.91;4989114;28;20480;-68
2023/08/09 07:37:40;;;;;;;8.68;1.58;;;;;;;-144.48;100.00;62369.91;4987482;28;20034;-68
2023/08/09 07:40:06;;;;;;;6.30;1.67;;;;;;;-144.48;100.00;62369.91;4987853;28;20102;-69
2023/08/09 07:42:32;;;;;;;7.70;1.15;;;;;;;-144.48;100.00;62369.91;4976746;28;20022;-66
2023/08/09 07:45:00;;;;;;;5.00;1.30;;;;;;;-144.48;100.00;62369.91;5000671;22;20083;-69
2023/08/09 07:47:25;;;;;;;3.38;1.05;;;;;;;-144.48;100.00;62369.91;5004117;28;20053;-68
2023/08/09 07:49:51;;;;;;;7.40;1.70;;;;;;;-144.48;100.00;62369.91;5000545;28;20034;-68
2023/08/09 07:52:17;;;;;;;3.08;1.08;;;;;;;-144.48;100.00;62369.91;5009544;28;20030;-69
2023/08/09 07:54:43;;;;;;;5.35;1.45;;;;;;;-144.48;100.00;62369.91;4998118;28;20076;-70
2023/08/09 07:57:09;;;;;;;8.43;1.30;;;;;;;-144.48;100.00;62369.91;5007421;28;20021;-68
2023/08/09 07:59:34;;;;;;;4.05;1.45;;;;;;;-144.48;100.00;62369.91;5009359;28;20148;-69
2023/08/09 08:02:00;;;;;;;3.40;1.10;;;;;;;-144.48;100.00;62369.91;5006985;28;20420;-69
2023/08/09 08:04:25;;;;;;;9.65;1.40;;;;;;;-144.48;100.00;62369.91;5008547;28;20109;-65
2023/08/09 08:06:51;;;;;;;6.15;1.30;;;;;;;-144.48;100.00;62369.91;5008166;28;20021;-65
2023/08/09 08:09:18;;;;;;;2.00;1.05;;;;;;;-144.48;100.00;62369.91;5009146;28;20475;-69
2023/08/09 08:11:43;;;;;;;4.80;1.05;;;;;;;-144.48;100.00;62369.91;5009089;28;20027;-68
2023/08/09 08:14:09;;;;;;;3.28;1.10;;;;;;;-144.48;100.00;62369.91;5009189;28;20024;-68
2023/08/09 08:16:35;;;;;;;13.82;1.80;;;;;;;-144.48;100.00;62369.91;5010021;28;20072;-68
2023/08/09 08:19:01;;;;;;;4.13;1.27;;;;;;;-144.48;100.00;62369.91;5012145;28;20029;-67
2023/08/09 08:21:27;;;;;;;3.25;1.20;;;;;;;-144.48;100.00;62369.91;5011949;28;20113;-69
2023/08/09 08:23:53;;;;;;;5.85;1.52;;;;;;;-144.48;100.00;62369.91;5012686;28;20120;-70
2023/08/09 08:26:18;;;;;;;4.75;1.25;;;;;;;-144.48;100.00;62369.91;5012549;28;20053;-68
2023/08/09 08:28:44;;;;;;;3.10;0.90;;;;;;;-144.48;100.00;62369.91;5012010;28;20549;-68
2023/08/09 08:31:09;;;;;;;5.53;1.63;;;;;;;-144.48;100.00;62369.91;5012044;28;20505;-69
2023/08/09 08:33:35;;;;;;;3.28;1.00;;;;;;;-144.48;100.00;62369.91;5005676;28;20029;-69
2023/08/09 08:36:01;;;;;;;1.73;0.90;;;;;;;-144.48;100.00;62369.91;5012659;28;20022;-68
2023/08/09 08:38:26;;;;;;;6.07;1.63;;;;;;;-144.48;100.00;62369.91;5012398;28;20080;-68
2023/08/09 08:40:54;;;;;;;4.45;1.20;;;;;;;-144.48;100.00;62369.91;5012416;28;20021;-68
2023/08/09 08:43:20;;;;;;;2.05;0.82;;;;;;;-144.48;100.00;62369.91;5010687;28;20029;-69
2023/08/09 08:45:47;;;;;;;5.97;1.30;;;;;;;-144.48;100.00;62369.91;5009586;28;20034;-68
2023/08/09 08:48:13;;;;;;;4.60;1.33;;;;;;;-144.48;100.00;62369.91;5012712;28;20380;-70
2023/08/09 08:50:41;;;;;;;3.25;1.00;;;;;;;-144.48;100.00;62369.91;5012073;28;20109;-66
2023/08/09 08:53:08;;;;;;;3.10;0.90;;;;;;;-144.48;100.00;62369.91;5011540;28;20045;-71
2023/08/09 08:55:34;;;;;;;5.93;1.25;;;;;;;-144.48;100.00;62369.91;5011558;28;20032;-69
2023/08/09 08:57:59;;;;;;;2.92;0.90;;;;;;;-144.48;100.00;62369.91;5011655;28;20022;-70
2023/08/09 09:00:25;;;;;;;7.25;1.08;;;;;;;-144.48;100.00;62369.91;5011151;28;20022;-67
2023/08/09 09:02:50;;;;;;;2.13;0.93;;;;;;;-144.48;100.00;62369.91;5012417;28;20041;-70
2023/08/09 09:05:17;;;;;;;3.20;1.27;;;;;;;-144.48;100.00;62369.91;5010052;28;20612;-67
2023/08/09 09:07:49;;;;;;;4.70;0.93;;;;;;;-144.48;100.00;62369.91;5011767;28;20022;-71
2023/08/09 09:10:15;;;;;;;5.75;1.13;;;;;;;-144.48;100.00;62369.91;5011208;28;20056;-68
2023/08/09 09:12:41;;;;;;;4.53;0.70;;;;;;;-144.48;100.00;62369.91;5011843;28;20392;-68
2023/08/09 09:15:09;;;;;;;5.18;1.20;;;;;;;-144.48;100.00;62369.91;5008862;28;20032;-69
2023/08/09 09:17:44;;;;;;;1.95;0.70;;;;;;;-144.48;100.00;62369.91;5010496;28;20033;-68
2023/08/09 09:20:15;;;;;;;3.30;1.08;;;;;;;-144.48;100.00;62369.91;5010763;28;20064;-69
2023/08/09 09:22:40;;;;;;;3.00;0.80;;;;;;;-144.48;100.00;62369.91;5010951;28;20029;-70
2023/08/09 09:25:10;;;;;;;3.47;1.02;;;;;;;-144.48;100.00;62369.91;5010276;28;20030;-69
2023/08/09 09:27:37;;;;;;;4.22;0.90;;;;;;;-144.48;100.00;62369.91;5011191;28;20097;-68
2023/08/09 09:30:19;;;;;;;4.70;1.15;;;;;;;-144.48;100.00;62369.91;5011252;28;20056;-69
2023/08/09 09:32:53;;;;;;;6.15;1.00;;;;;;;-144.48;100.00;62369.91;5011309;28;20061;-69
2023/08/09 09:35:25;;;;;;;3.38;1.00;;;;;;;-144.48;100.00;62369.91;5010834;28;20028;-68
2023/08/09 09:37:52;;;;;;;8.07;1.05;;;;;;;-144.48;100.00;62369.91;5011630;28;20021;-69
2023/08/09 09:40:32;;;;;;;1.95;0.70;;;;;;;-144.48;100.00;62369.91;5011907;28;20080;-69
2023/08/09 09:42:59;;;;;;;7.35;1.30;;;;;;;-144.48;100.00;62369.91;5012159;28;20083;-70
2023/08/09 09:45:27;;;;;;;3.53;0.73;;;;;;;-144.48;100.00;62369.91;5009975;28;20092;-67
2023/08/09 09:47:54;;;;;;;2.10;0.70;;;;;;;-144.48;100.00;62369.91;5010611;28;20511;-69
2023/08/09 09:50:24;;;;;;;5.15;1.30;;;;;;;-144.48;100.00;62369.91;5010477;28;20030;-69
2023/08/09 09:52:50;;;;;;;1.77;0.90;;;;;;;-144.48;100.00;62369.91;5012010;28;20030;-68
2023/08/09 09:55:17;;;;;;;2.78;0.70;;;;;;;-144.48;100.00;62369.91;5010738;28;20036;-66
2023/08/09 09:57:42;;;;;;;2.95;0.90;;;;;;;-144.48;100.00;62369.91;5011106;28;20563;-69
2023/08/09 10:00:11;;;;;;;4.07;1.00;;;;;;;-144.48;100.00;62369.91;5007870;28;20017;-69
2023/08/09 10:02:45;;;;;;;2.55;0.98;;;;;;;-144.48;100.00;62369.91;5010208;28;20029;-68
2023/08/09 10:05:16;;;;;;;4.55;0.73;;;;;;;-144.48;100.00;62369.91;5010535;28;20041;-69
2023/08/09 10:07:43;;;;;;;4.70;0.82;;;;;;;-144.48;100.00;62369.91;5011490;28;20029;-72
2023/08/09 10:10:09;;;;;;;2.05;0.85;;;;;;;-144.48;100.00;62369.91;5010487;28;20022;-69
2023/08/09 10:12:36;;;;;;;3.58;0.90;;;;;;;-144.48;100.00;62369.91;5011012;28;20061;-69
2023/08/09 10:15:04;;;;;;;2.83;0.80;;;;;;;-144.48;100.00;62369.91;5010775;28;20088;-69
2023/08/09 10:17:32;;;;;;;3.35;0.85;;;;;;;-144.48;100.00;62369.91;5011053;28;20121;-69
2023/08/09 10:20:00;;;;;;;5.68;0.80;;;;;;;-144.48;100.00;62369.91;5010565;28;20022;-68
2023/08/09 10:22:26;;;;;;;5.03;1.35;;;;;;;-144.48;100.00;62369.91;5010628;28;20444;-67
2023/08/09 10:24:56;;;;;;;3.28;0.80;;;;;;;-144.48;100.00;62369.91;5010226;28;20065;-69
2023/08/09 10:27:49;;;;;;;2.30;0.68;;;;;;;-144.48;100.00;62369.91;5010157;28;20044;-68
2023/08/09 10:30:19;;;;;;;1.60;0.80;;;;;;;-144.48;100.00;62369.91;4998376;28;20030;-70
2023/08/09 10:32:52;;;;;;;3.10;0.63;;;;;;;-144.48;100.00;62369.91;5010457;28;20061;-69
2023/08/09 10:36:04;;;;;;;2.05;1.00;;;;;;;-144.48;100.00;62369.91;5009612;28;20060;-68
2023/08/09 10:38:32;;;;;;;4.00;0.80;;;;;;;-144.48;100.00;62369.91;5004085;28;20507;-69
2023/08/09 10:40:59;;;;;;;2.55;0.88;;;;;;;-144.48;100.00;62369.91;5010172;28;20025;-69
2023/08/09 10:43:29;;;;;;;2.55;0.70;;;;;;;-144.48;100.00;62369.91;5025913;28;20096;-70
2023/08/09 10:45:56;;;;;;;1.15;0.70;;;;;;;-144.48;100.00;62369.91;5009499;28;20418;-68
2023/08/09 10:48:26;;;;;;;1.85;0.88;;;;;;;-144.48;100.00;62369.91;5008809;28;20061;-68
2023/08/09 10:51:08;;;;;;;4.47;1.00;;;;;;;-144.48;100.00;62369.91;5008172;28;20029;-67
2023/08/09 10:54:12;;;;;;;2.80;0.70;;;;;;;-144.48;100.00;62369.91;5009068;28;20022;-67
2023/08/09 10:56:46;;;;;;;3.80;1.25;;;;;;;-144.48;100.00;62369.91;4987240;28;20512;-69
2023/08/09 10:59:24;;;;;;;2.80;0.90;;;;;;;-144.48;100.00;62369.91;5005619;28;20030;-69
2023/08/09 11:01:50;;;;;;;1.75;0.65;;;;;;;-144.48;100.00;62369.91;5009077;28;20025;-69
2023/08/09 11:04:18;;;;;;;5.75;1.10;;;;;;;-144.48;100.00;62369.91;5009998;28;20026;-69
2023/08/09 11:06:49;;;;;;;3.15;0.85;;;;;;;-144.48;100.00;62369.91;5009780;28;20026;-70
2023/08/09 11:09:18;;;;;;;2.20;0.88;;;;;;;-144.48;100.00;62369.91;5010495;28;20037;-69